createdAt,value
2023-02-19T00:01:35.275Z,100959.06
2023-02-19T00:04:02.510Z,100956.53
2023-02-19T00:06:29.794Z,100957.44
2023-02-19T00:08:56.070Z,100954.69
2023-02-19T00:11:23.252Z,100955.38
2023-02-19T00:13:50.990Z,100962.25
2023-02-19T00:16:23.476Z,100961.91
2023-02-19T00:18:50.158Z,100957.91
2023-02-19T00:21:16.622Z,100953.38
2023-02-19T00:23:42.908Z,100949.59
2023-02-19T00:26:18.050Z,100946.38
2023-02-19T00:28:45.354Z,100941.31
2023-02-19T00:31:14.954Z,100948.06
2023-02-19T00:33:41.309Z,100947.31
2023-02-19T00:36:07.636Z,100945.19
2023-02-19T00:38:37.437Z,100947.34
2023-02-19T00:41:18.972Z,100936.34
2023-02-19T00:43:52.255Z,100929.53
2023-02-19T00:46:19.891Z,100928.59
2023-02-19T00:48:46.386Z,100924.72
2023-02-19T00:51:12.914Z,100922.88
2023-02-19T00:53:39.290Z,100923.66
2023-02-19T00:56:06.431Z,100918.94
2023-02-19T00:58:32.706Z,100928.09
2023-02-19T01:00:58.981Z,100929.75
2023-02-19T01:03:25.284Z,100922.00
2023-02-19T01:05:52.029Z,100922.66
2023-02-19T01:08:18.414Z,100925.50
2023-02-19T01:10:44.755Z,100922.38
2023-02-19T01:13:11.100Z,100916.44
2023-02-19T01:15:37.458Z,100924.66
2023-02-19T01:18:03.821Z,100925.78
2023-02-19T01:20:30.189Z,100923.50
2023-02-19T01:22:56.455Z,100928.56
2023-02-19T01:25:22.806Z,100928.63
2023-02-19T01:27:49.076Z,100930.97
2023-02-19T01:30:15.357Z,100927.59
2023-02-19T01:32:41.696Z,100924.47
2023-02-19T01:35:07.987Z,100925.34
2023-02-19T01:37:34.254Z,100919.88
2023-02-19T01:40:00.555Z,100930.22
2023-02-19T01:42:26.827Z,100914.81
2023-02-19T01:45:12.005Z,100911.97
2023-02-19T01:47:38.276Z,100906.06
2023-02-19T01:50:04.653Z,100902.88
2023-02-19T01:52:32.591Z,100912.09
2023-02-19T01:54:58.996Z,100905.13
2023-02-19T01:57:26.193Z,100915.91
2023-02-19T01:59:55.105Z,100919.13
2023-02-19T02:02:21.904Z,100911.44
2023-02-19T02:04:48.201Z,100907.03
2023-02-19T02:07:37.469Z,100918.38
2023-02-19T02:10:21.989Z,100923.81
2023-02-19T02:12:49.141Z,100920.97
2023-02-19T02:15:16.316Z,100930.06
2023-02-19T02:17:42.522Z,100932.78
2023-02-19T02:20:14.851Z,100937.31
2023-02-19T02:22:43.117Z,100942.44
2023-02-19T02:25:18.563Z,100932.03
2023-02-19T02:27:53.547Z,100937.41
2023-02-19T02:30:19.784Z,100936.63
2023-02-19T02:32:53.284Z,100939.88
2023-02-19T02:35:22.274Z,100933.84
2023-02-19T02:37:48.548Z,100942.00
2023-02-19T02:40:14.804Z,100939.25
2023-02-19T02:42:41.101Z,100947.16
2023-02-19T02:45:34.175Z,100948.28
2023-02-19T02:48:00.640Z,100940.41
2023-02-19T02:50:31.218Z,100942.75
2023-02-19T02:53:20.238Z,100941.47
2023-02-19T02:55:47.347Z,100940.19
2023-02-19T02:58:13.640Z,100946.63
2023-02-19T03:00:58.743Z,100946.63
2023-02-19T03:03:25.449Z,100936.09
2023-02-19T03:05:52.158Z,100952.59
2023-02-19T03:08:21.373Z,100943.69
2023-02-19T03:10:49.069Z,100937.72
2023-02-19T03:13:43.510Z,100939.69
2023-02-19T03:16:34.215Z,100934.47
2023-02-19T03:19:18.994Z,100932.94
2023-02-19T03:21:46.105Z,100938.66
2023-02-19T03:24:31.001Z,100947.16
2023-02-19T03:27:00.428Z,100942.00
2023-02-19T03:29:29.038Z,100939.41
2023-02-19T03:31:56.900Z,100952.84
2023-02-19T03:34:27.325Z,100959.84
2023-02-19T03:36:58.396Z,100954.03
2023-02-19T03:39:24.726Z,100951.16
2023-02-19T03:42:01.700Z,100956.84
2023-02-19T03:44:27.966Z,100968.47
2023-02-19T03:46:55.754Z,100967.06
2023-02-19T03:49:24.592Z,100963.59
2023-02-19T03:51:55.202Z,100968.88
2023-02-19T03:54:32.648Z,100985.19
2023-02-19T03:57:04.961Z,100982.84
2023-02-19T03:59:34.335Z,100991.88
2023-02-19T04:02:08.430Z,100988.00
2023-02-19T04:04:38.517Z,100989.44
2023-02-19T04:07:04.822Z,100995.00
2023-02-19T04:09:33.725Z,100986.84
2023-02-19T04:12:00.034Z,101001.94
2023-02-19T04:14:28.040Z,101001.56
2023-02-19T04:17:00.922Z,101004.28
2023-02-19T04:19:27.388Z,101001.97
2023-02-19T04:21:53.674Z,101002.75
2023-02-19T04:24:22.421Z,101013.44
2023-02-19T04:26:48.735Z,101012.41
2023-02-19T04:29:14.998Z,101020.94
2023-02-19T04:31:41.275Z,101017.97
2023-02-19T04:34:07.609Z,101028.81
2023-02-19T04:36:33.921Z,101033.84
2023-02-19T04:39:01.302Z,101030.22
2023-02-19T04:41:27.575Z,101028.81
2023-02-19T04:43:53.855Z,101026.75
2023-02-19T04:46:20.178Z,101034.75
2023-02-19T04:48:46.467Z,101040.16
2023-02-19T04:51:13.069Z,101046.38
2023-02-19T04:53:39.483Z,101055.28
2023-02-19T04:56:06.520Z,101039.78
2023-02-19T04:58:32.851Z,101048.03
2023-02-19T05:00:59.117Z,101047.94
2023-02-19T05:03:25.401Z,101046.09
2023-02-19T05:05:51.661Z,101051.81
2023-02-19T05:08:17.951Z,101052.84
2023-02-19T05:10:44.221Z,101062.63
2023-02-19T05:13:10.586Z,101071.44
2023-02-19T05:15:36.936Z,101069.38
2023-02-19T05:18:03.475Z,101069.72
2023-02-19T05:20:29.753Z,101069.09
2023-02-19T05:22:56.025Z,101075.03
2023-02-19T05:25:22.290Z,101074.25
2023-02-19T05:27:48.571Z,101081.25
2023-02-19T05:30:14.846Z,101078.16
2023-02-19T05:32:41.157Z,101086.53
2023-02-19T05:35:07.453Z,101090.00
2023-02-19T05:37:33.723Z,101099.59
2023-02-19T05:40:00.028Z,101100.72
2023-02-19T05:42:26.299Z,101099.56
2023-02-19T05:44:52.649Z,101104.56
2023-02-19T05:47:18.960Z,101105.09
2023-02-19T05:49:45.262Z,101109.34
2023-02-19T05:52:11.552Z,101118.91
2023-02-19T05:54:37.840Z,101109.22
2023-02-19T05:57:04.200Z,101130.75
2023-02-19T05:59:30.489Z,101133.34
2023-02-19T06:01:58.164Z,101114.75
2023-02-19T06:04:24.509Z,101118.81
2023-02-19T06:06:50.977Z,101120.75
2023-02-19T06:09:17.472Z,101119.47
2023-02-19T06:11:44.028Z,101119.34
2023-02-19T06:14:11.521Z,101132.06
2023-02-19T06:16:37.813Z,101131.28
2023-02-19T06:19:04.326Z,101127.47
2023-02-19T06:21:30.686Z,101135.72
2023-02-19T06:23:56.985Z,101133.66
2023-02-19T06:26:23.948Z,101142.28
2023-02-19T06:28:50.834Z,101135.72
2023-02-19T06:31:17.687Z,101140.81
2023-02-19T06:33:44.072Z,101159.91
2023-02-19T06:36:17.297Z,101153.88
2023-02-19T06:38:43.788Z,101147.50
2023-02-19T06:41:13.068Z,101162.25
2023-02-19T06:43:39.669Z,101166.84
2023-02-19T06:46:06.502Z,101169.75
2023-02-19T06:48:33.061Z,101169.91
2023-02-19T06:50:59.341Z,101171.06
2023-02-19T06:53:25.623Z,101173.59
2023-02-19T06:55:55.791Z,101181.06
2023-02-19T06:58:22.065Z,101185.28
2023-02-19T07:00:48.369Z,101190.13
2023-02-19T07:03:14.649Z,101194.41
2023-02-19T07:05:40.950Z,101206.75
2023-02-19T07:08:07.219Z,101203.84
2023-02-19T07:10:33.498Z,101203.31
2023-02-19T07:12:59.769Z,101223.72
2023-02-19T07:15:26.085Z,101231.59
2023-02-19T07:17:52.365Z,101236.06
2023-02-19T07:20:18.758Z,101243.50
2023-02-19T07:22:45.031Z,101254.25
2023-02-19T07:25:11.310Z,101249.22
2023-02-19T07:27:37.576Z,101257.75
2023-02-19T07:30:04.425Z,101257.66
2023-02-19T07:32:30.718Z,101259.75
2023-02-19T07:34:57.028Z,101263.53
2023-02-19T07:37:23.318Z,101282.72
2023-02-19T07:39:50.052Z,101278.81
2023-02-19T07:42:16.327Z,101287.16
2023-02-19T07:44:42.619Z,101291.44
2023-02-19T07:47:08.883Z,101292.50
2023-02-19T07:49:35.205Z,101284.75
2023-02-19T07:52:01.569Z,101291.66
2023-02-19T07:54:27.894Z,101302.38
2023-02-19T07:56:54.187Z,101299.50
2023-02-19T07:59:21.518Z,101297.22
2023-02-19T08:02:06.610Z,101302.13
2023-02-19T08:04:32.877Z,101299.44
2023-02-19T08:06:59.154Z,101313.69
2023-02-19T08:09:25.422Z,101315.88
2023-02-19T08:12:10.335Z,101323.13
2023-02-19T08:14:36.699Z,101319.13
2023-02-19T08:17:03.310Z,101322.00
2023-02-19T08:19:29.650Z,101326.09
2023-02-19T08:21:55.988Z,101323.75
2023-02-19T08:24:22.279Z,101339.84
2023-02-19T08:26:48.566Z,101337.34
2023-02-19T08:29:14.844Z,101337.97
2023-02-19T08:31:41.234Z,101329.31
2023-02-19T08:34:07.594Z,101327.56
2023-02-19T08:36:33.893Z,101334.28
2023-02-19T08:39:00.173Z,101337.97
2023-02-19T08:41:26.458Z,101338.75
2023-02-19T08:43:52.750Z,101352.28
2023-02-19T08:46:19.107Z,101349.06
2023-02-19T08:48:45.465Z,101348.84
2023-02-19T08:51:12.208Z,101347.44
2023-02-19T08:53:39.009Z,101348.69
2023-02-19T08:56:09.458Z,101355.59
2023-02-19T08:58:37.278Z,101341.34
2023-02-19T09:01:06.141Z,101347.91
2023-02-19T09:03:32.482Z,101360.13
2023-02-19T09:05:58.763Z,101364.50
2023-02-19T09:08:25.151Z,101364.22
2023-02-19T09:11:01.142Z,101366.31
2023-02-19T09:13:27.424Z,101375.72
2023-02-19T09:15:53.768Z,101375.63
2023-02-19T09:18:20.064Z,101378.56
2023-02-19T09:20:46.371Z,101384.28
2023-02-19T09:23:12.642Z,101382.97
2023-02-19T09:25:38.928Z,101380.25
2023-02-19T09:28:05.248Z,101388.69
2023-02-19T09:30:31.524Z,101397.63
2023-02-19T09:32:57.837Z,101394.91
2023-02-19T09:35:24.363Z,101405.38
2023-02-19T09:37:50.640Z,101405.03
2023-02-19T09:40:21.427Z,101414.97
2023-02-19T09:42:47.794Z,101413.63
2023-02-19T09:45:16.328Z,101404.72
2023-02-19T09:47:42.655Z,101404.38
2023-02-19T09:50:09.439Z,101406.88
2023-02-19T09:52:40.329Z,101415.34
2023-02-19T09:55:39.268Z,101427.03
2023-02-19T09:58:13.798Z,101435.41
2023-02-19T10:00:40.071Z,101440.66
2023-02-19T10:03:14.918Z,101439.06
2023-02-19T10:05:41.349Z,101448.03
2023-02-19T10:08:09.007Z,101449.91
2023-02-19T10:10:35.928Z,101457.91
2023-02-19T10:13:22.066Z,101470.63
2023-02-19T10:15:52.202Z,101475.97
2023-02-19T10:18:19.118Z,101482.00
2023-02-19T10:20:45.751Z,101491.72
2023-02-19T10:23:12.409Z,101488.16
2023-02-19T10:25:40.410Z,101495.63
2023-02-19T10:28:06.685Z,101506.16
2023-02-19T10:30:33.819Z,101513.91
2023-02-19T10:33:01.604Z,101512.59
2023-02-19T10:35:27.976Z,101514.97
2023-02-19T10:37:54.335Z,101517.13
2023-02-19T10:40:21.747Z,101506.38
2023-02-19T10:42:48.609Z,101542.50
2023-02-19T10:45:18.998Z,101551.88
2023-02-19T10:47:48.402Z,101544.97
2023-02-19T10:50:24.209Z,101554.84
2023-02-19T10:52:54.607Z,101566.81
2023-02-19T10:55:20.879Z,101577.56
2023-02-19T10:57:47.205Z,101581.97
2023-02-19T11:00:22.457Z,101601.38
2023-02-19T11:02:48.892Z,101592.44
2023-02-19T11:05:16.788Z,101595.91
2023-02-19T11:07:43.962Z,101577.88
2023-02-19T11:10:19.648Z,101592.16
2023-02-19T11:12:47.266Z,101612.59
2023-02-19T11:15:19.533Z,101606.97
2023-02-19T11:17:45.816Z,101607.75
2023-02-19T11:20:15.875Z,101594.41
2023-02-19T11:22:42.284Z,101603.78
2023-02-19T11:25:14.555Z,101595.91
2023-02-19T11:28:04.792Z,101589.69
2023-02-19T11:30:33.314Z,101601.38
2023-02-19T11:33:16.024Z,101608.97
2023-02-19T11:35:42.601Z,101614.72
2023-02-19T11:38:09.509Z,101601.69
2023-02-19T11:40:45.160Z,101599.28
2023-02-19T11:43:14.401Z,101596.06
2023-02-19T11:46:03.990Z,101594.69
2023-02-19T11:48:30.379Z,101583.78
2023-02-19T11:51:08.630Z,101572.84
2023-02-19T11:53:37.174Z,101579.41
2023-02-19T11:56:19.471Z,101585.44
2023-02-19T11:59:07.567Z,101594.25
2023-02-19T12:01:39.911Z,101585.75
2023-02-19T12:04:12.313Z,101582.28
2023-02-19T12:06:41.672Z,101578.47
2023-02-19T12:09:20.339Z,101581.16
2023-02-19T12:11:57.751Z,101571.75
2023-02-19T12:14:39.299Z,101574.91
2023-02-19T12:17:16.329Z,101574.81
2023-02-19T12:19:52.957Z,101578.88
2023-02-19T12:22:29.346Z,101582.09
2023-02-19T12:24:55.590Z,101581.34
2023-02-19T12:27:30.868Z,101581.31
2023-02-19T12:30:03.631Z,101586.47
2023-02-19T12:32:29.903Z,101596.16
2023-02-19T12:35:02.205Z,101593.44
2023-02-19T12:37:34.691Z,101592.94
2023-02-19T12:40:13.312Z,101592.72
2023-02-19T12:42:43.607Z,101595.63
2023-02-19T12:45:17.751Z,101589.38
2023-02-19T12:47:54.309Z,101587.34
2023-02-19T12:50:24.033Z,101589.31
2023-02-19T12:52:51.027Z,101583.59
2023-02-19T12:55:21.545Z,101585.63
2023-02-19T12:57:47.829Z,101580.13
2023-02-19T13:00:20.971Z,101594.53
2023-02-19T13:02:59.380Z,101608.56
2023-02-19T13:05:28.988Z,101603.97
2023-02-19T13:08:24.837Z,101609.47
2023-02-19T13:10:51.767Z,101599.16
2023-02-19T13:13:23.247Z,101594.53
2023-02-19T13:15:53.983Z,101592.44
2023-02-19T13:18:24.529Z,101592.69
2023-02-19T13:20:51.696Z,101588.44
2023-02-19T13:23:44.365Z,101600.59
2023-02-19T13:26:22.556Z,101607.50
2023-02-19T13:29:12.151Z,101611.53
2023-02-19T13:31:44.750Z,101608.00
2023-02-19T13:34:27.935Z,101614.91
2023-02-19T13:36:54.379Z,101620.34
2023-02-19T13:39:20.959Z,101624.00
2023-02-19T13:41:51.370Z,101623.81
2023-02-19T13:44:21.844Z,101631.50
2023-02-19T13:46:49.116Z,101621.34
2023-02-19T13:49:38.705Z,101620.41
2023-02-19T13:52:23.490Z,101629.00
2023-02-19T13:54:49.769Z,101640.81
2023-02-19T13:57:20.054Z,101637.13
2023-02-19T13:59:46.639Z,101641.69
2023-02-19T14:02:14.223Z,101647.53
2023-02-19T14:04:41.958Z,101649.25
2023-02-19T14:07:08.152Z,101652.03
2023-02-19T14:09:34.540Z,101646.25
2023-02-19T14:12:02.015Z,101647.69
2023-02-19T14:14:34.179Z,101648.81
2023-02-19T14:17:07.989Z,101651.56
2023-02-19T14:19:48.350Z,101653.56
2023-02-19T14:22:33.091Z,101654.66
2023-02-19T14:24:59.375Z,101665.50
2023-02-19T14:27:25.719Z,101673.81
2023-02-19T14:29:52.000Z,101679.56
2023-02-19T14:32:19.313Z,101678.59
2023-02-19T14:34:45.688Z,101673.03
2023-02-19T14:37:19.737Z,101667.47
2023-02-19T14:39:46.069Z,101677.28
2023-02-19T14:42:16.371Z,101676.25
2023-02-19T14:44:42.574Z,101671.72
2023-02-19T14:47:11.740Z,101668.03
2023-02-19T14:49:45.686Z,101674.56
2023-02-19T14:52:14.947Z,101674.09
2023-02-19T14:54:57.639Z,101669.22
2023-02-19T14:57:25.547Z,101657.47
2023-02-19T14:59:53.268Z,101657.47
2023-02-19T15:02:21.134Z,101650.06
2023-02-19T15:04:47.546Z,101649.88
2023-02-19T15:07:15.446Z,101649.59
2023-02-19T15:09:46.616Z,101645.94
2023-02-19T15:12:22.787Z,101641.84
2023-02-19T15:14:49.634Z,101645.97
2023-02-19T15:17:16.899Z,101641.50
2023-02-19T15:19:43.223Z,101637.28
2023-02-19T15:22:17.338Z,101625.38
2023-02-19T15:24:44.228Z,101628.78
2023-02-19T15:27:20.765Z,101615.53
2023-02-19T15:29:47.836Z,101609.50
2023-02-19T15:32:26.088Z,101596.88
2023-02-19T15:34:56.385Z,101591.63
2023-02-19T15:37:23.141Z,101594.47
2023-02-19T15:39:49.650Z,101590.22
2023-02-19T15:42:17.472Z,101597.94
2023-02-19T15:45:00.947Z,101601.88
2023-02-19T15:47:33.291Z,101603.78
2023-02-19T15:50:11.767Z,101605.84
2023-02-19T15:52:43.490Z,101612.75
2023-02-19T15:55:15.807Z,101614.59
2023-02-19T15:57:43.494Z,101609.38
2023-02-19T16:00:15.129Z,101620.09
2023-02-19T16:02:41.460Z,101618.81
2023-02-19T16:05:15.906Z,101612.53
2023-02-19T16:07:43.578Z,101624.81
2023-02-19T16:10:17.870Z,101627.41
2023-02-19T16:12:44.157Z,101631.81
2023-02-19T16:15:14.409Z,101633.31
2023-02-19T16:17:43.803Z,101644.88
2023-02-19T16:20:22.392Z,101651.22
2023-02-19T16:22:48.766Z,101658.69
2023-02-19T16:25:25.747Z,101664.44
2023-02-19T16:27:52.093Z,101661.41
2023-02-19T16:30:25.230Z,101655.78
2023-02-19T16:33:10.504Z,101654.28
2023-02-19T16:35:37.331Z,101659.88
2023-02-19T16:38:11.535Z,101657.63
2023-02-19T16:40:54.199Z,101651.22
2023-02-19T16:43:25.517Z,101657.44
2023-02-19T16:45:51.806Z,101654.84
2023-02-19T16:48:18.354Z,101664.72
2023-02-19T16:50:46.155Z,101678.03
2023-02-19T16:53:18.249Z,101677.28
2023-02-19T16:55:44.555Z,101684.59
2023-02-19T16:58:10.860Z,101689.59
2023-02-19T17:00:37.142Z,101695.84
2023-02-19T17:03:08.806Z,101699.94
2023-02-19T17:05:35.173Z,101717.41
2023-02-19T17:08:01.641Z,101720.28
2023-02-19T17:10:28.190Z,101716.31
2023-02-19T17:12:54.938Z,101716.78
2023-02-19T17:15:21.698Z,101723.63
2023-02-19T17:17:48.005Z,101731.22
2023-02-19T17:20:17.318Z,101728.78
2023-02-19T17:22:43.669Z,101723.63
2023-02-19T17:25:09.957Z,101730.59
2023-02-19T17:27:36.298Z,101726.78
2023-02-19T17:30:02.737Z,101726.34
2023-02-19T17:32:29.136Z,101733.63
2023-02-19T17:34:55.466Z,101725.31
2023-02-19T17:37:21.740Z,101726.16
2023-02-19T17:39:48.811Z,101725.59
2023-02-19T17:42:15.071Z,101732.72
2023-02-19T17:44:41.371Z,101726.19
2023-02-19T17:47:07.660Z,101725.44
2023-02-19T17:49:33.990Z,101718.59
2023-02-19T17:52:00.286Z,101714.81
2023-02-19T17:54:26.662Z,101718.91
2023-02-19T17:56:52.932Z,101726.78
2023-02-19T17:59:19.296Z,101724.09
2023-02-19T18:01:46.120Z,101733.91
2023-02-19T18:04:12.429Z,101729.03
2023-02-19T18:06:38.754Z,101736.94
2023-02-19T18:09:05.703Z,101738.13
2023-02-19T18:11:32.004Z,101733.16
2023-02-19T18:13:59.472Z,101726.63
2023-02-19T18:16:25.774Z,101730.44
2023-02-19T18:18:52.144Z,101736.34
2023-02-19T18:21:18.463Z,101743.16
2023-02-19T18:23:46.001Z,101747.44
2023-02-19T18:26:13.616Z,101753.03
2023-02-19T18:28:39.902Z,101761.91
2023-02-19T18:31:06.497Z,101763.16
2023-02-19T18:33:33.319Z,101774.13
2023-02-19T18:35:59.601Z,101789.13
2023-02-19T18:38:25.897Z,101801.41
2023-02-19T18:40:52.226Z,101819.72
2023-02-19T18:43:18.488Z,101823.53
2023-02-19T18:45:46.445Z,101823.44
2023-02-19T18:48:12.957Z,101829.28
2023-02-19T18:50:39.280Z,101836.03
2023-02-19T18:53:05.540Z,101850.63
2023-02-19T18:55:31.812Z,101849.66
2023-02-19T18:57:58.069Z,101855.47
2023-02-19T19:00:26.362Z,101844.44
2023-02-19T19:02:56.787Z,101853.06
2023-02-19T19:05:23.427Z,101851.06
2023-02-19T19:07:50.668Z,101854.78
2023-02-19T19:10:17.379Z,101846.84
2023-02-19T19:12:43.646Z,101843.09
2023-02-19T19:15:09.957Z,101849.91
2023-02-19T19:17:36.217Z,101850.31
2023-02-19T19:20:02.624Z,101853.06
2023-02-19T19:22:28.927Z,101844.84
2023-02-19T19:24:55.204Z,101849.81
2023-02-19T19:27:21.572Z,101846.91
2023-02-19T19:29:49.639Z,101853.09
2023-02-19T19:32:16.026Z,101854.53
2023-02-19T19:34:43.014Z,101849.28
2023-02-19T19:37:09.557Z,101855.28
2023-02-19T19:39:35.877Z,101844.66
2023-02-19T19:42:02.229Z,101835.56
2023-02-19T19:44:28.567Z,101834.41
2023-02-19T19:46:55.451Z,101849.91
2023-02-19T19:49:21.964Z,101851.97
2023-02-19T19:51:48.395Z,101849.22
2023-02-19T19:54:14.938Z,101859.34
2023-02-19T19:56:41.648Z,101864.25
2023-02-19T19:59:09.405Z,101853.63
2023-02-19T20:01:35.743Z,101862.19
2023-02-19T20:04:02.028Z,101860.09
2023-02-19T20:06:29.018Z,101859.47
2023-02-19T20:08:55.362Z,101868.13
2023-02-19T20:11:21.666Z,101874.88
2023-02-19T20:13:47.945Z,101875.63
2023-02-19T20:16:14.612Z,101871.31
2023-02-19T20:18:41.042Z,101874.44
2023-02-19T20:21:08.181Z,101868.91
2023-02-19T20:23:34.508Z,101874.13
2023-02-19T20:26:00.772Z,101876.78
2023-02-19T20:28:27.076Z,101887.91
2023-02-19T20:30:53.451Z,101877.53
2023-02-19T20:33:19.772Z,101886.16
2023-02-19T20:35:46.054Z,101883.78
2023-02-19T20:38:14.403Z,101892.31
2023-02-19T20:40:40.673Z,101892.38
2023-02-19T20:43:06.954Z,101894.28
2023-02-19T20:45:33.466Z,101902.81
2023-02-19T20:47:59.788Z,101892.38
2023-02-19T20:50:26.209Z,101897.91
2023-02-19T20:52:53.457Z,101889.75
2023-02-19T20:55:19.814Z,101896.03
2023-02-19T20:57:46.104Z,101891.75
2023-02-19T21:00:13.706Z,101896.34
2023-02-19T21:02:40.213Z,101888.31
2023-02-19T21:05:06.608Z,101878.19
2023-02-19T21:07:33.167Z,101878.78
2023-02-19T21:09:59.459Z,101873.56
2023-02-19T21:12:25.782Z,101877.94
2023-02-19T21:14:52.109Z,101886.88
2023-02-19T21:17:18.390Z,101885.66
2023-02-19T21:19:44.670Z,101884.00
2023-02-19T21:22:10.974Z,101889.47
2023-02-19T21:24:37.324Z,101885.50
2023-02-19T21:27:03.868Z,101881.00
2023-02-19T21:29:30.140Z,101879.38
2023-02-19T21:31:57.205Z,101886.06
2023-02-19T21:34:25.148Z,101889.75
2023-02-19T21:36:51.514Z,101895.22
2023-02-19T21:39:18.518Z,101898.69
2023-02-19T21:41:44.809Z,101888.91
2023-02-19T21:44:11.099Z,101877.53
2023-02-19T21:46:37.402Z,101876.09
2023-02-19T21:49:04.018Z,101882.66
2023-02-19T21:51:31.612Z,101885.50
2023-02-19T21:53:58.021Z,101880.09
2023-02-19T21:56:25.092Z,101884.81
2023-02-19T21:58:51.366Z,101879.78
2023-02-19T22:01:21.343Z,101894.53
2023-02-19T22:03:47.683Z,101893.69
2023-02-19T22:06:14.180Z,101900.69
2023-02-19T22:08:40.581Z,101892.44
2023-02-19T22:11:06.841Z,101882.84
2023-02-19T22:13:33.137Z,101885.56
2023-02-19T22:15:59.441Z,101887.38
2023-02-19T22:18:25.745Z,101882.31
2023-02-19T22:20:52.050Z,101873.94
2023-02-19T22:23:18.491Z,101883.66
2023-02-19T22:25:44.764Z,101873.47
2023-02-19T22:28:11.051Z,101868.13
2023-02-19T22:30:37.343Z,101863.72
2023-02-19T22:33:03.911Z,101865.97
2023-02-19T22:35:30.196Z,101868.41
2023-02-19T22:37:56.601Z,101874.28
2023-02-19T22:40:22.875Z,101876.44
2023-02-19T22:42:49.142Z,101873.84
2023-02-19T22:45:15.533Z,101869.78
2023-02-19T22:47:43.598Z,101866.78
2023-02-19T22:50:16.664Z,101869.53
2023-02-19T22:52:42.926Z,101871.13
2023-02-19T22:55:09.245Z,101870.81
2023-02-19T22:57:36.192Z,101877.22
2023-02-19T23:00:03.778Z,101881.00
2023-02-19T23:02:30.040Z,101877.22
2023-02-19T23:04:56.319Z,101880.09
2023-02-19T23:07:22.583Z,101886.56
2023-02-19T23:09:49.048Z,101881.69
2023-02-19T23:12:15.416Z,101871.81
2023-02-19T23:14:41.697Z,101871.59
2023-02-19T23:17:07.965Z,101873.25
2023-02-19T23:19:34.631Z,101877.31
2023-02-19T23:22:01.055Z,101871.03
2023-02-19T23:24:27.344Z,101872.56
2023-02-19T23:26:53.741Z,101873.94
2023-02-19T23:29:25.262Z,101887.50
2023-02-19T23:31:53.443Z,101882.13
2023-02-19T23:34:20.189Z,101880.91
2023-02-19T23:36:47.693Z,101874.25
2023-02-19T23:39:14.748Z,101874.97
2023-02-19T23:41:53.339Z,101876.16
2023-02-19T23:44:20.080Z,101876.91
2023-02-19T23:46:46.359Z,101869.94
2023-02-19T23:49:12.824Z,101876.41
2023-02-19T23:51:39.112Z,101874.84
2023-02-19T23:54:05.610Z,101874.84
2023-02-19T23:56:32.066Z,101868.47
2023-02-19T23:58:58.555Z,101865.66
